Time;durP1;ratioP1;P1;durP2;ratioP2;P2;SDS_P1;SDS_P2;PMS_P1;PMS_P2;Temp;Humidity;BMP_temperature;BMP_pressure;BME280_temperature;BME280_humidity;BME280_pressure;Samples;Min_cycle;Max_cycle;Signal;HPM_P1;HPM_P2
2021/09/18 00:01:17;;;;;;;6.75;3.95;;;18.00;1.00;;;;;;5049867;28;20484;-81
2021/09/18 00:03:42;;;;;;;4.82;4.32;;;18.00;1.00;;;;;;5048801;28;20029;-81
2021/09/18 00:06:08;;;;;;;7.40;4.35;;;17.80;1.00;;;;;;5048907;28;20021;-81
2021/09/18 00:08:34;;;;;;;4.53;3.95;;;17.90;1.00;;;;;;5049435;28;20513;-81
2021/09/18 00:11:00;;;;;;;4.53;4.15;;;17.90;1.00;;;;;;5049141;28;20029;-81
2021/09/18 00:13:26;;;;;;;4.22;3.83;;;18.00;1.00;;;;;;5050240;28;20057;-81
2021/09/18 00:15:51;;;;;;;4.78;3.83;;;17.80;1.00;;;;;;5048898;28;20029;-81
2021/09/18 00:18:17;;;;;;;4.70;4.10;;;17.80;1.00;;;;;;5049256;28;20068;-81
2021/09/18 00:20:43;;;;;;;5.53;4.05;;;17.80;1.00;;;;;;5052626;28;20041;-81
2021/09/18 00:23:08;;;;;;;4.50;4.10;;;17.70;1.00;;;;;;5052289;28;20061;-81
2021/09/18 00:25:34;;;;;;;5.45;4.03;;;17.70;1.00;;;;;;5052904;28;20025;-81
2021/09/18 00:27:59;;;;;;;4.70;4.03;;;17.70;1.00;;;;;;5051914;28;20028;-81
2021/09/18 00:30:25;;;;;;;4.88;4.10;;;17.70;1.00;;;;;;5052326;28;20036;-81
2021/09/18 00:32:51;;;;;;;7.38;4.00;;;17.50;1.00;;;;;;5052767;28;20386;-81
2021/09/18 00:35:16;;;;;;;7.35;4.07;;;17.50;1.00;;;;;;5052686;28;20486;-81
2021/09/18 00:37:42;;;;;;;4.30;3.90;;;17.50;1.00;;;;;;5054147;28;20449;-81
2021/09/18 00:40:08;;;;;;;5.65;4.10;;;17.50;1.00;;;;;;5052072;28;20107;-81
2021/09/18 00:42:34;;;;;;;4.60;3.90;;;17.50;1.00;;;;;;5052087;28;20035;-81
2021/09/18 00:45:00;;;;;;;5.70;4.38;;;17.50;1.00;;;;;;5051878;28;20408;-81
2021/09/18 00:47:26;;;;;;;5.35;3.80;;;17.50;1.00;;;;;;5052023;28;20473;-81
2021/09/18 00:49:52;;;;;;;4.13;3.83;;;17.50;1.00;;;;;;5053247;28;20053;-81
2021/09/18 00:52:19;;;;;;;5.20;3.95;;;17.30;1.00;;;;;;5052349;28;20441;-81
2021/09/18 00:54:48;;;;;;;4.60;4.20;;;17.30;1.00;;;;;;5051533;28;20049;-81
2021/09/18 00:57:15;;;;;;;6.03;3.90;;;17.30;1.00;;;;;;5052304;28;20040;-81
2021/09/18 00:59:42;;;;;;;5.35;3.90;;;17.20;1.00;;;;;;5051758;28;20063;-81
2021/09/18 01:02:07;;;;;;;7.03;4.22;;;17.10;1.00;;;;;;5051488;28;20056;-81
2021/09/18 01:04:33;;;;;;;6.75;4.20;;;17.00;1.00;;;;;;5052345;28;20446;-81
2021/09/18 01:06:59;;;;;;;6.72;4.18;;;17.10;1.00;;;;;;5052084;28;20036;-81
2021/09/18 01:09:25;;;;;;;8.68;4.43;;;17.20;1.00;;;;;;5050947;28;20025;-81
2021/09/18 01:11:51;;;;;;;8.75;4.00;;;17.20;1.00;;;;;;5051172;28;20033;-81
2021/09/18 01:14:17;;;;;;;6.75;4.40;;;17.10;1.00;;;;;;5051967;28;20107;-81
2021/09/18 01:16:42;;;;;;;6.70;4.68;;;17.10;1.00;;;;;;5053173;28;20086;-81
2021/09/18 01:19:08;;;;;;;7.63;4.60;;;17.10;1.00;;;;;;5051175;28;20033;-81
2021/09/18 01:21:33;;;;;;;5.50;4.75;;;17.10;1.00;;;;;;5050963;28;20036;-80
2021/09/18 01:24:00;;;;;;;7.15;4.68;;;17.10;1.00;;;;;;5051227;28;20024;-81
2021/09/18 01:26:40;;;;;;;4.63;4.25;;;17.00;1.00;;;;;;5050987;28;20057;-81
2021/09/18 01:29:07;;;;;;;6.70;4.30;;;17.00;1.00;;;;;;5051316;28;20029;-81
2021/09/18 01:31:41;;;;;;;6.80;4.40;;;16.90;1.00;;;;;;5051502;28;20029;-81
2021/09/18 01:34:07;;;;;;;4.90;4.50;;;16.90;1.00;;;;;;5051221;28;20583;-81
2021/09/18 01:36:34;;;;;;;5.85;4.53;;;16.90;1.00;;;;;;5051230;28;20032;-81
2021/09/18 01:38:59;;;;;;;5.85;4.22;;;16.90;1.00;;;;;;5032936;28;20463;-81
2021/09/18 01:41:31;;;;;;;5.78;4.20;;;16.90;1.00;;;;;;5048929;28;20112;-81
2021/09/18 01:43:59;;;;;;;5.88;4.68;;;16.80;1.00;;;;;;5052098;28;20028;-81
2021/09/18 01:46:25;;;;;;;7.25;4.57;;;16.80;1.00;;;;;;5052525;28;20504;-81
2021/09/18 01:48:51;;;;;;;5.78;4.40;;;16.90;1.00;;;;;;5050656;28;20108;-80
2021/09/18 01:51:16;;;;;;;5.43;4.70;;;17.00;1.00;;;;;;5050678;28;20037;-81
2021/09/18 01:53:42;;;;;;;7.50;4.80;;;17.00;1.00;;;;;;5050757;28;20025;-81
2021/09/18 01:56:08;;;;;;;6.85;4.50;;;17.00;1.00;;;;;;5050052;28;20041;-81
2021/09/18 01:58:33;;;;;;;5.00;4.50;;;17.10;1.00;;;;;;5052575;28;20366;-81
2021/09/18 02:01:01;;;;;;;8.45;4.47;;;17.10;1.00;;;;;;5051187;28;20485;-81
2021/09/18 02:03:27;;;;;;;8.32;5.10;;;17.10;1.00;;;;;;5050028;28;20051;-81
2021/09/18 02:05:53;;;;;;;6.68;4.72;;;17.00;1.00;;;;;;5050163;28;20036;-81
2021/09/18 02:08:21;;;;;;;4.65;4.25;;;16.90;1.00;;;;;;5051003;28;20034;-81
2021/09/18 02:10:47;;;;;;;5.57;4.50;;;16.90;1.00;;;;;;5048013;28;20017;-80
2021/09/18 02:13:13;;;;;;;4.80;4.30;;;16.90;1.00;;;;;;5050462;28;20048;-81
2021/09/18 02:15:39;;;;;;;6.07;4.60;;;16.90;1.00;;;;;;5050010;28;20017;-80
2021/09/18 02:18:05;;;;;;;8.85;4.40;;;16.80;1.00;;;;;;5049960;28;20055;-81
2021/09/18 02:20:31;;;;;;;7.68;4.57;;;16.70;1.00;;;;;;5048958;28;20381;-81
2021/09/18 02:22:57;;;;;;;4.72;4.28;;;16.70;1.00;;;;;;5051515;28;20105;-81
2021/09/18 02:25:24;;;;;;;7.72;4.53;;;16.70;1.00;;;;;;5050696;28;20033;-81
2021/09/18 02:27:50;;;;;;;6.25;4.30;;;16.60;1.00;;;;;;5050207;28;20025;-81
2021/09/18 02:30:23;;;;;;;6.55;4.72;;;16.70;1.00;;;;;;5049600;28;20040;-81
2021/09/18 02:32:49;;;;;;;9.05;4.53;;;16.50;1.00;;;;;;5050037;28;20021;-81
2021/09/18 02:35:16;;;;;;;10.27;4.75;;;16.50;1.00;;;;;;5050074;28;20017;-81
2021/09/18 02:37:43;;;;;;;4.65;4.10;;;16.50;1.00;;;;;;5052007;28;20024;-81
2021/09/18 02:40:12;;;;;;;6.75;4.88;;;16.60;1.00;;;;;;5049104;28;20025;-81
2021/09/18 02:42:39;;;;;;;5.97;4.00;;;16.60;1.00;;;;;;5049766;28;20046;-81
2021/09/18 02:45:06;;;;;;;5.93;4.55;;;16.50;1.00;;;;;;5049983;28;20036;-81
2021/09/18 02:47:32;;;;;;;6.45;4.63;;;16.50;1.00;;;;;;5049586;28;20029;-81
2021/09/18 02:49:57;;;;;;;7.05;4.57;;;16.50;1.00;;;;;;5050959;28;20488;-81
2021/09/18 02:52:23;;;;;;;8.55;4.80;;;16.40;1.00;;;;;;5050650;28;20029;-81
2021/09/18 02:54:49;;;;;;;5.40;4.80;;;16.40;1.00;;;;;;5049461;28;20559;-81
2021/09/18 02:57:14;;;;;;;6.10;5.50;;;16.40;1.00;;;;;;5049372;28;20398;-81
2021/09/18 02:59:40;;;;;;;6.10;4.68;;;16.40;1.00;;;;;;5048334;28;20116;-81
2021/09/18 03:02:05;;;;;;;6.95;4.72;;;16.50;1.00;;;;;;5050093;28;20376;-81
2021/09/18 03:04:32;;;;;;;7.22;5.07;;;16.40;1.00;;;;;;5051433;28;20029;-81
2021/09/18 03:06:58;;;;;;;7.13;4.70;;;16.30;1.00;;;;;;5031281;28;20401;-81
2021/09/18 03:09:24;;;;;;;9.40;4.85;;;16.30;1.00;;;;;;5031618;28;20382;-81
2021/09/18 03:11:49;;;;;;;6.18;4.50;;;16.20;1.00;;;;;;5049266;28;20040;-81
2021/09/18 03:14:15;;;;;;;7.10;5.00;;;16.20;1.00;;;;;;5049183;28;20060;-81
2021/09/18 03:16:40;;;;;;;6.60;4.63;;;16.10;1.00;;;;;;5051665;28;20064;-81
2021/09/18 03:19:06;;;;;;;8.25;4.95;;;16.30;1.00;;;;;;5049055;28;20082;-81
2021/09/18 03:21:32;;;;;;;5.63;4.57;;;16.20;1.00;;;;;;5049020;28;20511;-81
2021/09/18 03:23:57;;;;;;;8.73;5.10;;;16.10;1.00;;;;;;5049077;28;20112;-81
2021/09/18 03:26:23;;;;;;;5.95;5.18;;;16.30;1.00;;;;;;5049751;28;20082;-81
2021/09/18 03:28:49;;;;;;;6.53;4.60;;;16.30;1.00;;;;;;5051026;28;20031;-80
2021/09/18 03:31:17;;;;;;;6.57;5.13;;;16.20;1.00;;;;;;5049598;28;20402;-81
2021/09/18 03:33:43;;;;;;;6.40;5.20;;;16.60;1.00;;;;;;5049283;28;20082;-81
2021/09/18 03:36:09;;;;;;;7.68;5.95;;;16.10;1.00;;;;;;5048916;28;20128;-81
2021/09/18 03:38:34;;;;;;;7.95;4.93;;;16.20;1.00;;;;;;5047632;28;20156;-80
2021/09/18 03:41:00;;;;;;;5.65;5.05;;;16.10;1.00;;;;;;5049751;28;20174;-81
2021/09/18 03:43:26;;;;;;;6.00;5.07;;;16.10;1.00;;;;;;5032643;28;20397;-81
2021/09/18 03:45:52;;;;;;;8.10;5.53;;;16.10;1.00;;;;;;5049445;28;20465;-81
2021/09/18 03:48:18;;;;;;;5.68;4.97;;;16.00;1.00;;;;;;5048808;28;20035;-81
2021/09/18 03:50:44;;;;;;;10.02;5.38;;;15.90;1.00;;;;;;5049325;28;20029;-80
2021/09/18 03:53:10;;;;;;;6.32;5.28;;;16.00;1.00;;;;;;5048521;28;20029;-81
2021/09/18 03:55:35;;;;;;;7.43;4.80;;;16.10;1.00;;;;;;5054270;28;20039;-81
2021/09/18 03:58:01;;;;;;;6.65;4.97;;;16.20;1.00;;;;;;5052636;28;20029;-81
2021/09/18 04:00:26;;;;;;;6.43;4.70;;;16.20;1.00;;;;;;5052725;28;20083;-81
2021/09/18 04:02:52;;;;;;;7.68;5.22;;;16.20;1.00;;;;;;5053380;28;20021;-81
2021/09/18 04:05:18;;;;;;;6.47;4.95;;;16.20;1.00;;;;;;5052903;28;20029;-80
2021/09/18 04:07:43;;;;;;;7.50;5.00;;;16.10;1.00;;;;;;5054163;28;20501;-81
2021/09/18 04:10:10;;;;;;;8.07;5.22;;;16.10;1.00;;;;;;5052593;28;20485;-81
2021/09/18 04:12:35;;;;;;;6.93;4.80;;;16.00;1.00;;;;;;5052690;28;20063;-80
2021/09/18 04:15:01;;;;;;;6.10;5.20;;;16.00;1.00;;;;;;5052522;28;20474;-80
2021/09/18 04:17:26;;;;;;;5.75;5.05;;;15.90;1.00;;;;;;5032831;28;20057;-81
2021/09/18 04:19:52;;;;;;;6.13;5.00;;;15.90;1.00;;;;;;5053613;28;20021;-81
2021/09/18 04:22:18;;;;;;;6.85;5.00;;;15.90;1.00;;;;;;5053313;28;20219;-81
2021/09/18 04:24:44;;;;;;;8.07;5.57;;;15.90;1.00;;;;;;5052556;28;20489;-80
2021/09/18 04:27:10;;;;;;;6.53;5.10;;;16.00;1.00;;;;;;5052139;28;20405;-80
2021/09/18 04:29:35;;;;;;;7.38;5.00;;;16.00;1.00;;;;;;5051909;28;20036;-81
2021/09/18 04:32:01;;;;;;;5.82;5.22;;;15.90;1.00;;;;;;5052293;28;20175;-81
2021/09/18 04:34:27;;;;;;;8.60;5.57;;;16.00;1.00;;;;;;5053508;28;20078;-81
2021/09/18 04:36:53;;;;;;;6.97;5.43;;;15.90;1.00;;;;;;5052285;28;20531;-80
2021/09/18 04:39:18;;;;;;;7.32;5.68;;;15.80;1.00;;;;;;5051880;28;20401;-80
2021/09/18 04:41:44;;;;;;;6.47;4.78;;;15.80;1.00;;;;;;5051872;28;20167;-80
2021/09/18 04:44:10;;;;;;;8.90;5.30;;;15.80;1.00;;;;;;5034244;28;20029;-81
2021/09/18 04:46:36;;;;;;;5.90;5.30;;;15.80;1.00;;;;;;5053957;28;20479;-81
2021/09/18 04:49:01;;;;;;;6.15;5.55;;;15.80;1.00;;;;;;5051802;28;20028;-81
2021/09/18 04:51:27;;;;;;;9.38;5.30;;;15.80;1.00;;;;;;5051794;28;20104;-81
2021/09/18 04:53:53;;;;;;;7.18;5.22;;;15.70;1.00;;;;;;5051710;28;20120;-81
2021/09/18 04:56:18;;;;;;;6.10;5.50;;;15.80;1.00;;;;;;5050430;28;20029;-80
2021/09/18 04:58:45;;;;;;;7.00;5.05;;;15.60;1.00;;;;;;5053521;28;20071;-81
2021/09/18 05:01:10;;;;;;;7.43;5.43;;;15.60;1.00;;;;;;5051551;28;20028;-81
2021/09/18 05:03:36;;;;;;;7.53;5.57;;;15.50;1.00;;;;;;5051753;28;20440;-80
2021/09/18 05:06:02;;;;;;;7.25;5.63;;;15.60;1.00;;;;;;5051220;28;20104;-80
2021/09/18 05:08:27;;;;;;;7.97;5.78;;;15.70;1.00;;;;;;5051537;28;20044;-81
2021/09/18 05:10:53;;;;;;;6.60;5.70;;;15.70;1.00;;;;;;5052369;28;20060;-80
2021/09/18 05:13:19;;;;;;;7.80;5.40;;;15.60;1.00;;;;;;5051411;28;20059;-80
2021/09/18 05:15:47;;;;;;;5.82;5.10;;;15.50;1.00;;;;;;5051283;28;20104;-80
2021/09/18 05:18:17;;;;;;;5.90;5.20;;;16.00;1.00;;;;;;5050714;28;20033;-81
2021/09/18 05:20:42;;;;;;;6.85;5.15;;;15.60;1.00;;;;;;5051418;28;20037;-81
2021/09/18 05:23:08;;;;;;;9.13;5.65;;;15.70;1.00;;;;;;5051674;28;20023;-81
2021/09/18 05:25:34;;;;;;;6.88;5.45;;;15.60;1.00;;;;;;5053243;28;20107;-81
2021/09/18 05:27:59;;;;;;;8.95;5.72;;;15.50;1.00;;;;;;5051298;28;20017;-81
2021/09/18 05:30:25;;;;;;;6.38;5.70;;;15.60;1.00;;;;;;5049677;28;20385;-81
2021/09/18 05:32:50;;;;;;;6.15;5.55;;;15.60;1.00;;;;;;5051174;28;20164;-81
2021/09/18 05:35:16;;;;;;;10.10;5.68;;;15.60;1.00;;;;;;5050437;28;20032;-81
2021/09/18 05:37:42;;;;;;;7.25;5.88;;;15.50;1.00;;;;;;5052943;28;20516;-81
2021/09/18 05:40:08;;;;;;;8.88;5.97;;;15.50;1.00;;;;;;5051180;28;20025;-80
2021/09/18 05:42:33;;;;;;;11.35;5.80;;;15.50;1.00;;;;;;5051613;28;20048;-81
2021/09/18 05:44:59;;;;;;;7.72;5.88;;;15.60;1.00;;;;;;5050629;28;20470;-81
2021/09/18 05:47:25;;;;;;;7.50;6.65;;;15.70;1.00;;;;;;5050665;28;20029;-80
2021/09/18 05:49:50;;;;;;;6.50;5.90;;;15.70;1.00;;;;;;5052754;28;20120;-80
2021/09/18 05:52:16;;;;;;;7.25;5.93;;;15.70;1.00;;;;;;5050561;28;20043;-80
2021/09/18 05:54:42;;;;;;;7.38;5.95;;;15.80;1.00;;;;;;5050582;28;20135;-80
2021/09/18 05:57:07;;;;;;;7.35;5.28;;;15.90;1.00;;;;;;5050519;28;20053;-80
2021/09/18 05:59:33;;;;;;;5.88;4.90;;;15.90;1.00;;;;;;5050335;28;20377;-80
2021/09/18 06:01:58;;;;;;;7.07;5.25;;;15.80;1.00;;;;;;5052036;28;20086;-81
2021/09/18 06:04:24;;;;;;;8.98;6.03;;;15.80;1.00;;;;;;5051618;28;20377;-80
2021/09/18 06:06:50;;;;;;;8.18;5.50;;;15.90;1.00;;;;;;5049516;28;20421;-81
2021/09/18 06:09:15;;;;;;;7.60;6.35;;;16.00;1.00;;;;;;5048704;28;20019;-81
2021/09/18 06:11:41;;;;;;;9.63;5.88;;;16.10;1.00;;;;;;5050648;28;20048;-81
2021/09/18 06:14:06;;;;;;;7.40;6.05;;;16.20;1.00;;;;;;5050263;28;20079;-82
2021/09/18 06:16:32;;;;;;;7.72;5.75;;;16.10;1.00;;;;;;5051737;28;20086;-81
2021/09/18 06:18:58;;;;;;;10.00;6.18;;;16.20;1.00;;;;;;5050097;28;20013;-81
2021/09/18 06:21:23;;;;;;;7.95;5.72;;;16.30;1.00;;;;;;5049554;28;20427;-81
2021/09/18 06:23:49;;;;;;;9.68;6.32;;;16.40;1.00;;;;;;5050224;28;20067;-81
2021/09/18 06:26:16;;;;;;;12.65;5.97;;;16.50;1.00;;;;;;5049894;28;20029;-80
2021/09/18 06:28:42;;;;;;;5.93;5.35;;;16.50;1.00;;;;;;5052248;28;20074;-81
2021/09/18 06:31:08;;;;;;;9.23;5.82;;;16.60;1.00;;;;;;5049844;28;20041;-81
2021/09/18 06:33:34;;;;;;;6.00;5.40;;;16.60;1.00;;;;;;5050635;28;20651;-81
2021/09/18 06:36:00;;;;;;;7.63;5.63;;;16.80;1.00;;;;;;5048912;28;20047;-81
2021/09/18 06:38:26;;;;;;;9.65;6.75;;;16.80;1.00;;;;;;5050222;28;20112;-81
2021/09/18 06:40:55;;;;;;;7.13;6.20;;;16.90;1.00;;;;;;5051491;28;20091;-80
2021/09/18 06:43:23;;;;;;;8.07;6.13;;;17.00;1.00;;;;;;5050746;28;20451;-81
2021/09/18 06:45:50;;;;;;;7.32;5.63;;;17.10;1.00;;;;;;5049276;28;20051;-81
2021/09/18 06:48:16;;;;;;;7.97;6.78;;;17.00;1.00;;;;;;5049451;28;20025;-81
2021/09/18 06:50:42;;;;;;;8.05;6.35;;;17.00;1.00;;;;;;5049653;28;20023;-81
2021/09/18 06:53:08;;;;;;;7.43;6.10;;;17.00;1.00;;;;;;5032046;28;20485;-81
2021/09/18 06:55:35;;;;;;;6.82;6.13;;;17.20;1.00;;;;;;5049906;28;20074;-81
2021/09/18 06:58:01;;;;;;;7.60;6.38;;;17.00;1.00;;;;;;5049911;28;20056;-81
2021/09/18 07:00:28;;;;;;;7.35;5.97;;;16.70;1.00;;;;;;5048983;28;20436;-81
2021/09/18 07:02:54;;;;;;;8.75;6.25;;;17.00;1.00;;;;;;5049304;28;20107;-81
2021/09/18 07:05:19;;;;;;;9.13;6.28;;;17.30;1.00;;;;;;5049558;28;20125;-81
2021/09/18 07:07:45;;;;;;;8.07;6.30;;;17.30;1.00;;;;;;5051801;28;20685;-81
2021/09/18 07:10:12;;;;;;;7.18;6.07;;;17.40;1.00;;;;;;5049622;28;20025;-81
2021/09/18 07:12:38;;;;;;;11.10;6.70;;;17.40;1.00;;;;;;5049101;28;20033;-81
2021/09/18 07:15:05;;;;;;;8.25;6.93;;;17.50;1.00;;;;;;5048222;28;20052;-81
2021/09/18 07:17:31;;;;;;;6.95;6.25;;;17.70;1.00;;;;;;5048567;28;20037;-81
2021/09/18 07:19:58;;;;;;;9.15;6.40;;;17.60;1.00;;;;;;5050350;28;20083;-81
2021/09/18 07:22:27;;;;;;;9.32;6.82;;;17.90;1.00;;;;;;5050374;28;20393;-80
2021/09/18 07:24:54;;;;;;;9.50;7.45;;;18.00;1.00;;;;;;5048558;28;20036;-81
2021/09/18 07:27:20;;;;;;;11.50;8.32;;;18.10;1.00;;;;;;5048242;28;20036;-80
2021/09/18 07:29:47;;;;;;;9.82;8.13;;;18.40;1.00;;;;;;5049468;28;20025;-81
2021/09/18 07:32:12;;;;;;;8.63;7.75;;;18.60;1.00;;;;;;5051770;28;20521;-81
2021/09/18 07:34:38;;;;;;;10.10;7.85;;;18.90;1.00;;;;;;5053284;28;20029;-81
2021/09/18 07:37:04;;;;;;;11.43;10.25;;;19.00;1.00;;;;;;5051835;28;20057;-81
2021/09/18 07:39:31;;;;;;;10.93;9.82;;;19.10;1.00;;;;;;5051567;28;20220;-81
2021/09/18 07:41:57;;;;;;;12.57;11.02;;;19.30;1.00;;;;;;5051925;28;20507;-81
2021/09/18 07:44:23;;;;;;;15.25;12.20;;;19.40;1.00;;;;;;5051615;28;20021;-81
2021/09/18 07:46:49;;;;;;;13.13;11.05;;;19.50;1.00;;;;;;5053758;28;20071;-81
2021/09/18 07:49:16;;;;;;;12.55;10.38;;;19.70;1.00;;;;;;5050538;28;20021;-81
2021/09/18 07:51:42;;;;;;;12.35;10.38;;;19.60;1.00;;;;;;5051216;28;20116;-80
2021/09/18 07:54:08;;;;;;;13.13;10.60;;;19.60;1.00;;;;;;5052462;28;20108;-81
2021/09/18 07:56:34;;;;;;;12.63;11.23;;;19.70;1.00;;;;;;5052075;28;20028;-81
2021/09/18 07:58:59;;;;;;;14.43;11.75;;;19.70;1.00;;;;;;5052175;28;20021;-80
2021/09/18 08:01:30;;;;;;;12.75;11.45;;;19.50;1.00;;;;;;5052658;28;20027;-81
2021/09/18 08:03:59;;;;;;;12.52;11.23;;;19.60;1.00;;;;;;5051633;28;20409;-81
2021/09/18 08:06:26;;;;;;;15.90;13.05;;;19.50;1.00;;;;;;5051255;28;20104;-81
2021/09/18 08:08:52;;;;;;;13.88;11.77;;;19.50;1.00;;;;;;5051242;28;20520;-81
2021/09/18 08:11:20;;;;;;;16.10;11.25;;;19.50;1.00;;;;;;5016662;28;20263;-81
2021/09/18 08:13:53;;;;;;;12.03;10.67;;;19.60;1.00;;;;;;5010329;28;1116913;-81
2021/09/18 08:16:19;;;;;;;12.18;10.07;;;19.50;1.00;;;;;;5029394;28;20559;-81
2021/09/18 08:18:45;;;;;;;12.65;11.32;;;19.60;1.00;;;;;;5052232;28;20028;-81
2021/09/18 08:21:12;;;;;;;14.00;10.70;;;19.60;1.00;;;;;;5052602;28;20104;-81
2021/09/18 08:23:38;;;;;;;11.73;10.52;;;19.50;1.00;;;;;;5052096;28;20021;-81
2021/09/18 08:26:04;;;;;;;11.80;10.57;;;19.70;1.00;;;;;;5052864;28;20044;-81
2021/09/18 08:28:30;;;;;;;14.85;11.93;;;19.70;1.00;;;;;;5051767;28;20040;-80
2021/09/18 08:30:56;;;;;;;16.02;14.23;;;19.70;1.00;;;;;;5052279;28;20021;-81
2021/09/18 08:33:21;;;;;;;16.65;13.85;;;19.80;1.00;;;;;;5052331;28;20443;-81
2021/09/18 08:35:47;;;;;;;13.60;10.75;;;19.80;1.00;;;;;;5052123;28;20017;-81
2021/09/18 08:38:13;;;;;;;13.75;11.95;;;19.90;1.00;;;;;;5034201;28;20044;-81
2021/09/18 08:40:39;;;;;;;12.38;10.13;;;20.10;1.00;;;;;;5054394;28;20469;-81
2021/09/18 08:43:06;;;;;;;11.85;10.52;;;20.30;1.00;;;;;;5051380;28;20090;-81
2021/09/18 08:45:33;;;;;;;12.40;10.13;;;20.60;1.00;;;;;;5051693;28;20079;-81
2021/09/18 08:48:02;;;;;;;11.68;10.02;;;20.80;1.00;;;;;;5051735;28;20063;-81
2021/09/18 08:50:29;;;;;;;12.85;11.52;;;21.00;1.00;;;;;;5050669;28;20033;-81
2021/09/18 08:52:55;;;;;;;11.90;9.55;;;21.30;1.00;;;;;;5052854;28;20432;-81
2021/09/18 08:55:21;;;;;;;10.80;9.52;;;21.60;1.00;;;;;;5052861;28;20401;-81
2021/09/18 08:57:47;;;;;;;10.00;9.00;;;21.90;1.00;;;;;;5051283;28;20021;-81
2021/09/18 09:00:32;;;;;;;11.35;8.35;;;22.30;1.00;;;;;;5051435;28;20107;-81
2021/09/18 09:02:59;;;;;;;11.20;8.00;;;23.00;1.00;;;;;;5051714;28;20043;-82
2021/09/18 09:05:32;;;;;;;8.48;7.25;;;23.40;1.00;;;;;;5051468;28;20029;-82
2021/09/18 09:08:21;;;;;;;9.98;6.85;;;23.90;1.00;;;;;;5052496;28;20025;-81
2021/09/18 09:10:47;;;;;;;9.98;6.63;;;26.10;1.00;;;;;;5048999;28;20036;-81
2021/09/18 09:13:17;;;;;;;8.02;7.22;;;28.20;99.90;;;;;;5050842;28;20041;-82
2021/09/18 09:15:44;;;;;;;9.95;7.22;;;30.40;99.90;;;;;;5051124;28;20037;-81
2021/09/18 09:18:22;;;;;;;7.28;6.65;;;34.30;99.90;;;;;;5051563;28;20048;-81
2021/09/18 09:20:50;;;;;;;7.90;7.13;;;36.40;99.90;;;;;;5051532;28;20017;-82
2021/09/18 09:23:15;;;;;;;7.60;6.90;;;36.10;99.90;;;;;;5051100;28;20025;-81
2021/09/18 09:25:41;;;;;;;8.93;6.65;;;36.40;99.90;;;;;;5052765;28;20036;-82
2021/09/18 09:28:26;;;;;;;6.70;6.10;;;36.80;99.90;;;;;;5051159;28;20477;-82
2021/09/18 09:30:53;;;;;;;6.95;6.20;;;39.10;99.90;;;;;;5049905;28;20112;-82
2021/09/18 09:33:19;;;;;;;8.45;7.65;;;40.10;99.90;;;;;;5050988;28;20052;-82
2021/09/18 09:35:45;;;;;;;7.57;6.65;;;39.10;99.90;;;;;;5050721;28;20481;-82
2021/09/18 09:38:11;;;;;;;7.72;6.95;;;38.70;99.90;;;;;;5051370;28;20509;-82
2021/09/18 09:40:41;;;;;;;7.57;6.45;;;39.30;99.90;;;;;;5052405;28;20082;-82
2021/09/18 09:43:09;;;;;;;7.72;6.80;;;39.80;99.90;;;;;;5050758;28;20399;-82
2021/09/18 09:45:35;;;;;;;6.60;6.00;;;39.90;99.90;;;;;;5050590;28;20032;-82
2021/09/18 09:48:13;;;;;;;7.57;5.65;;;39.70;99.90;;;;;;5050965;28;20404;-82
2021/09/18 09:50:41;;;;;;;5.60;5.10;;;40.00;99.90;;;;;;5049695;28;20037;-82
2021/09/18 09:53:26;;;;;;;5.57;5.07;;;40.10;99.90;;;;;;5049774;28;20546;-83
2021/09/18 09:55:53;;;;;;;5.63;5.13;;;40.30;99.90;;;;;;5048640;28;20053;-82
2021/09/18 09:58:18;;;;;;;5.63;5.13;;;41.60;99.90;;;;;;5050409;28;20036;-83
2021/09/18 10:00:49;;;;;;;6.00;5.47;;;41.40;99.90;;;;;;5049916;28;20021;-83
2021/09/18 10:03:18;;;;;;;4.43;4.03;;;42.40;99.90;;;;;;5050724;28;20020;-83
2021/09/18 10:05:45;;;;;;;5.18;4.32;;;43.30;99.90;;;;;;5050260;28;20388;-83
2021/09/18 10:08:12;;;;;;;4.70;4.30;;;42.70;99.90;;;;;;5049768;28;20171;-82
2021/09/18 10:10:40;;;;;;;4.22;3.83;;;42.40;99.90;;;;;;5051804;28;20029;-83
2021/09/18 10:13:06;;;;;;;5.55;4.30;;;42.60;99.90;;;;;;5050266;28;20063;-83
2021/09/18 10:15:33;;;;;;;4.60;4.20;;;42.90;99.90;;;;;;5049808;28;20040;-83
2021/09/18 10:18:01;;;;;;;3.97;3.55;;;42.90;99.90;;;;;;5050041;28;20033;-83
2021/09/18 10:25:40;;;;;;;5.05;4.00;;;43.50;99.90;;;;;;5051987;28;20098;-83
2021/09/18 10:28:14;;;;;;;4.40;3.88;;;43.30;99.90;;;;;;5050673;28;20028;-83
2021/09/18 10:30:52;;;;;;;3.78;3.47;;;43.00;99.90;;;;;;5050054;28;20039;-83
2021/09/18 10:33:44;;;;;;;3.70;3.40;;;41.90;99.90;;;;;;5049591;28;20029;-80
2021/09/18 10:36:22;;;;;;;3.20;2.90;;;42.30;99.90;;;;;;5049731;28;20074;-81
2021/09/18 10:39:05;;;;;;;3.22;2.92;;;42.90;99.90;;;;;;5049256;28;20497;-81
2021/09/18 10:41:47;;;;;;;4.88;3.38;;;44.50;99.90;;;;;;5036185;28;20037;-80
2021/09/18 10:44:15;;;;;;;3.88;3.30;;;43.70;99.90;;;;;;5050310;28;20060;-81
2021/09/18 10:46:43;;;;;;;2.83;2.60;;;43.10;99.90;;;;;;5051298;28;20037;-81
2021/09/18 10:49:33;;;;;;;4.70;2.88;;;43.80;99.90;;;;;;5047816;28;20025;-81
2021/09/18 10:52:17;;;;;;;2.70;2.50;;;42.70;99.90;;;;;;5049189;28;20513;-81
2021/09/18 10:55:10;;;;;;;3.03;2.80;;;42.70;99.90;;;;;;5049268;28;20091;-81
2021/09/18 10:57:39;;;;;;;4.13;3.40;;;44.20;99.90;;;;;;5049624;28;20056;-81
2021/09/18 11:00:08;;;;;;;3.22;2.92;;;44.50;99.90;;;;;;5049350;28;20037;-81
2021/09/18 11:02:33;;;;;;;3.47;3.08;;;43.80;99.90;;;;;;5031388;28;20452;-81
2021/09/18 11:05:30;;;;;;;3.45;2.90;;;44.40;99.90;;;;;;5050070;28;20070;-81
2021/09/18 11:08:03;;;;;;;3.00;2.80;;;44.30;99.90;;;;;;5048157;28;20083;-81
2021/09/18 11:10:28;;;;;;;3.45;3.15;;;43.80;99.90;;;;;;5049531;28;20362;-81
2021/09/18 11:13:10;;;;;;;3.00;2.80;;;44.60;99.90;;;;;;5031273;28;20051;-80
2021/09/18 11:15:46;;;;;;;2.88;2.60;;;43.90;99.90;;;;;;5049201;28;20126;-80
2021/09/18 11:18:34;;;;;;;3.38;3.08;;;44.40;99.90;;;;;;5049034;28;20568;-81
2021/09/18 11:21:01;;;;;;;4.22;2.80;;;45.00;99.90;;;;;;5049113;28;20389;-81
2021/09/18 11:23:34;;;;;;;4.03;2.80;;;45.20;99.90;;;;;;5048982;28;20171;-81
2021/09/18 11:26:00;;;;;;;2.67;2.45;;;44.00;99.90;;;;;;5049938;28;20058;-81
2021/09/18 11:28:34;;;;;;;3.72;2.60;;;43.10;99.90;;;;;;5049481;28;20560;-81
2021/09/18 11:31:01;;;;;;;3.65;2.83;;;42.70;99.90;;;;;;5049184;28;20025;-81
2021/09/18 11:33:26;;;;;;;2.80;2.60;;;43.90;99.90;;;;;;5049412;28;20021;-81
2021/09/18 11:35:58;;;;;;;2.75;2.55;;;44.10;99.90;;;;;;5048884;28;20036;-81
2021/09/18 11:38:33;;;;;;;3.47;2.47;;;43.70;99.90;;;;;;5049147;28;20034;-81
2021/09/18 11:41:20;;;;;;;3.50;2.67;;;44.10;99.90;;;;;;5050144;28;20033;-81
2021/09/18 11:43:46;;;;;;;2.70;2.50;;;43.00;99.90;;;;;;5047364;28;20108;-81
2021/09/18 11:46:25;;;;;;;3.53;2.70;;;43.20;99.90;;;;;;5049245;28;20036;-81
2021/09/18 11:48:58;;;;;;;4.82;3.47;;;43.50;99.90;;;;;;5048967;28;20122;-81
2021/09/18 11:51:24;;;;;;;3.28;2.92;;;43.50;99.90;;;;;;5048207;28;20040;-81
2021/09/18 11:54:02;;;;;;;2.83;2.60;;;43.80;99.90;;;;;;5049084;28;20388;-81
2021/09/18 11:56:28;;;;;;;2.42;2.22;;;42.00;99.90;;;;;;5035054;28;20082;-81
2021/09/18 11:58:54;;;;;;;3.25;2.50;;;42.00;99.90;;;;;;5050516;28;20112;-81
2021/09/18 12:01:20;;;;;;;2.58;2.00;;;41.90;99.90;;;;;;5049811;28;20015;-81
2021/09/18 12:03:46;;;;;;;2.00;1.80;;;42.60;99.90;;;;;;5049316;28;20025;-81
2021/09/18 12:06:18;;;;;;;2.03;1.80;;;42.80;99.90;;;;;;5046800;28;20123;-81
2021/09/18 12:08:49;;;;;;;2.00;1.80;;;43.50;99.90;;;;;;5049019;28;20488;-82
2021/09/18 12:11:18;;;;;;;1.95;1.77;;;44.30;99.90;;;;;;5049038;28;20401;-81
2021/09/18 12:13:56;;;;;;;2.08;1.73;;;45.50;99.90;;;;;;5050663;28;20053;-81
2021/09/18 12:16:24;;;;;;;2.00;1.80;;;43.90;99.90;;;;;;5052604;28;20378;-82
2021/09/18 12:18:52;;;;;;;1.83;1.73;;;44.10;99.90;;;;;;5052208;28;20074;-82
2021/09/18 12:21:20;;;;;;;2.05;1.95;;;43.20;99.90;;;;;;5051976;28;20025;-82
2021/09/18 12:24:06;;;;;;;1.70;1.60;;;43.30;99.90;;;;;;5052374;28;20024;-81
2021/09/18 12:26:34;;;;;;;1.77;1.67;;;43.00;99.90;;;;;;5038315;28;20524;-81
2021/09/18 12:29:09;;;;;;;2.08;1.88;;;42.90;99.90;;;;;;5053383;28;20303;-81
2021/09/18 12:31:36;;;;;;;1.85;1.67;;;44.30;99.90;;;;;;5052932;28;20497;-81
2021/09/18 12:34:13;;;;;;;1.80;1.70;;;44.70;99.90;;;;;;5051996;28;20507;-81
2021/09/18 12:36:39;;;;;;;1.80;1.70;;;44.50;99.90;;;;;;5052275;28;20078;-81
2021/09/18 12:39:06;;;;;;;2.00;1.85;;;43.10;99.90;;;;;;5052447;28;20017;-81
2021/09/18 12:41:34;;;;;;;2.75;2.40;;;42.20;99.90;;;;;;5051977;28;20500;-81
2021/09/18 12:44:06;;;;;;;2.00;1.80;;;43.00;99.90;;;;;;5052699;28;20029;-81
2021/09/18 12:46:40;;;;;;;2.33;2.13;;;42.70;99.90;;;;;;5052023;28;20048;-82
2021/09/18 12:49:05;;;;;;;1.85;1.70;;;43.50;99.90;;;;;;5051904;28;20029;-81
2021/09/18 12:51:33;;;;;;;2.33;2.10;;;42.60;99.90;;;;;;5051772;28;20059;-81
2021/09/18 12:54:00;;;;;;;4.32;1.90;;;42.40;99.90;;;;;;5051956;28;20033;-81
2021/09/18 12:56:29;;;;;;;1.77;1.67;;;42.30;99.90;;;;;;5051880;28;20025;-81
2021/09/18 12:58:58;;;;;;;2.13;1.88;;;42.00;99.90;;;;;;5053102;28;20060;-81